Time;durP1;ratioP1;P1;durP2;ratioP2;P2;SDS_P1;SDS_P2;PMS_P1;PMS_P2;Temp;Humidity;BMP_temperature;BMP_pressure;BME280_temperature;BME280_humidity;BME280_pressure;Samples;Min_cycle;Max_cycle;Signal;HPM_P1;HPM_P2
2022/06/14 00:00:53;;;;;;;15.30;14.60;;;;;;;-141.02;100.00;55844.97;5093067;28;20615;-76
2022/06/14 00:02:24;;;;;;;14.82;14.13;;;;;;;-141.02;100.00;55844.97;5092656;28;20202;-76
2022/06/14 00:04:51;;;;;;;14.18;13.57;;;;;;;-141.02;100.00;55844.97;5092843;28;20257;-76
2022/06/14 00:07:19;;;;;;;12.70;12.20;;;;;;;-141.02;100.00;55844.97;5093743;28;20603;-76
2022/06/14 00:09:46;;;;;;;12.80;12.27;;;;;;;-141.02;100.00;55844.97;5092898;28;20277;-76
2022/06/14 00:12:13;;;;;;;13.02;12.43;;;;;;;-141.02;100.00;55844.97;5092797;28;20221;-76
2022/06/14 00:14:41;;;;;;;14.20;13.60;;;;;;;-141.02;100.00;55844.97;5092786;28;20236;-76
2022/06/14 00:17:08;;;;;;;12.00;11.50;;;;;;;-141.02;100.00;55844.97;5092721;28;20229;-76
2022/06/14 00:19:35;;;;;;;12.00;11.50;;;;;;;-141.02;100.00;55844.97;5092441;28;20194;-76
2022/06/14 00:22:03;;;;;;;12.50;12.00;;;;;;;-141.02;100.00;55844.97;5092330;28;20229;-77
2022/06/14 00:24:32;;;;;;;13.00;12.50;;;;;;;-141.02;100.00;55844.97;5092578;28;20232;-76
2022/06/14 00:26:59;;;;;;;12.90;12.40;;;;;;;-141.02;100.00;55844.97;5092645;28;20252;-76
2022/06/14 00:29:26;;;;;;;11.60;11.20;;;;;;;-141.02;100.00;55844.97;5092582;28;20221;-76
2022/06/14 00:31:53;;;;;;;11.93;11.43;;;;;;;-141.02;100.00;55844.97;5092587;28;20251;-76
2022/06/14 00:34:20;;;;;;;11.95;11.45;;;;;;;-141.02;100.00;55844.97;5093030;28;20727;-76
2022/06/14 00:36:53;;;;;;;11.88;11.48;;;;;;;-141.02;100.00;55844.97;5092341;28;20302;-77
2022/06/14 00:39:20;;;;;;;11.52;11.13;;;;;;;-141.02;100.00;55844.97;5092167;28;20197;-77
2022/06/14 00:41:50;;;;;;;11.40;11.00;;;;;;;-141.02;100.00;55844.97;5092124;28;20306;-76
2022/06/14 00:44:20;;;;;;;11.40;11.00;;;;;;;-141.02;100.00;55844.97;5092319;28;20225;-76
2022/06/14 00:46:55;;;;;;;10.60;10.20;;;;;;;-141.02;100.00;55844.97;5092704;28;20251;-77
2022/06/14 00:49:26;;;;;;;10.38;10.07;;;;;;;-141.02;100.00;55844.97;5092380;28;20190;-76
2022/06/14 00:51:59;;;;;;;10.48;10.18;;;;;;;-141.02;100.00;55844.97;5127826;28;20310;-76
2022/06/14 00:54:31;;;;;;;10.05;9.75;;;;;;;-141.02;100.00;55844.97;5132990;27;20231;-76
2022/06/14 00:57:06;;;;;;;10.00;9.70;;;;;;;-141.02;100.00;55844.97;5133240;27;20188;-76
2022/06/14 00:59:39;;;;;;;9.80;9.50;;;;;;;-141.02;100.00;55844.97;5132950;27;20245;-76
2022/06/14 01:02:14;;;;;;;9.68;9.38;;;;;;;-141.02;100.00;55844.97;5132858;27;20224;-77
2022/06/14 01:04:42;;;;;;;9.60;9.30;;;;;;;-141.02;100.00;55844.97;5133137;27;20273;-76
2022/06/14 01:07:14;;;;;;;9.85;9.55;;;;;;;-141.02;100.00;55844.97;5132788;27;20232;-76
2022/06/14 01:09:45;;;;;;;9.95;9.65;;;;;;;-141.02;100.00;55844.97;5133123;27;20263;-76
2022/06/14 01:12:16;;;;;;;9.75;9.45;;;;;;;-141.02;100.00;55844.97;5133017;27;20645;-76
2022/06/14 01:14:48;;;;;;;10.05;9.75;;;;;;;-141.02;100.00;55844.97;5133104;27;20185;-76
2022/06/14 01:17:16;;;;;;;9.75;9.45;;;;;;;-141.02;100.00;55844.97;5133027;27;20555;-76
2022/06/14 01:19:43;;;;;;;10.00;9.70;;;;;;;-141.02;100.00;55844.97;5132664;27;20761;-76
2022/06/14 01:22:29;;;;;;;10.38;10.07;;;;;;;-141.02;100.00;55844.97;5132610;27;20288;-76
2022/06/14 01:24:57;;;;;;;10.10;9.80;;;;;;;-141.02;100.00;55844.97;5132620;27;20693;-76
2022/06/14 01:27:27;;;;;;;10.60;10.30;;;;;;;-141.02;100.00;55844.97;5132903;27;20185;-76
2022/06/14 01:30:07;;;;;;;10.00;9.70;;;;;;;-141.02;100.00;55844.97;5132602;27;20670;-76
2022/06/14 01:32:38;;;;;;;10.50;10.20;;;;;;;-141.02;100.00;55844.97;5132925;27;20209;-76
2022/06/14 01:35:09;;;;;;;10.82;10.43;;;;;;;-141.02;100.00;55844.97;5132550;27;20180;-76
2022/06/14 01:37:38;;;;;;;10.55;10.25;;;;;;;-141.02;100.00;55844.97;5132803;27;20246;-76
2022/06/14 01:40:07;;;;;;;10.65;10.27;;;;;;;-141.02;100.00;55844.97;5132828;27;20196;-76
2022/06/14 01:42:45;;;;;;;10.63;10.32;;;;;;;-141.02;100.00;55844.97;5132736;27;20251;-77
2022/06/14 01:45:23;;;;;;;11.20;10.80;;;;;;;-141.02;100.00;55844.97;5132732;27;20627;-76
2022/06/14 01:48:08;;;;;;;10.77;10.38;;;;;;;-141.02;100.00;55844.97;5133713;27;20219;-76
2022/06/14 01:53:46;;;;;;;9.77;9.48;;;;;;;-141.02;100.00;55844.97;5136530;27;20179;-76
2022/06/14 01:56:19;;;;;;;9.00;8.70;;;;;;;-141.02;100.00;55844.97;5136051;27;20733;-76
2022/06/14 01:58:54;;;;;;;8.35;8.15;;;;;;;-141.02;100.00;55844.97;5136001;27;20275;-76
2022/06/14 02:01:27;;;;;;;8.35;8.15;;;;;;;-141.02;100.00;55844.97;5136284;27;20184;-76
2022/06/14 02:06:52;;;;;;;8.50;8.30;;;;;;;-141.02;100.00;55844.97;5136217;27;20259;-76
2022/06/14 02:09:25;;;;;;;8.93;8.63;;;;;;;-141.02;100.00;55844.97;5136158;27;20249;-76
2022/06/14 02:11:57;;;;;;;8.63;8.43;;;;;;;-141.02;100.00;55844.97;5136066;27;20216;-76
2022/06/14 02:14:31;;;;;;;8.57;8.38;;;;;;;-141.02;100.00;55844.97;5135747;27;20220;-76
2022/06/14 02:17:02;;;;;;;8.98;8.68;;;;;;;-141.02;100.00;55844.97;5135956;27;20217;-76
2022/06/14 02:19:35;;;;;;;9.02;8.73;;;;;;;-141.02;100.00;55844.97;5135971;27;20261;-76
2022/06/14 02:22:09;;;;;;;8.40;8.20;;;;;;;-141.02;100.00;55844.97;5135529;27;20282;-76
2022/06/14 02:24:42;;;;;;;7.80;7.60;;;;;;;-141.02;100.00;55844.97;5135472;27;20252;-77
2022/06/14 02:27:14;;;;;;;8.10;7.90;;;;;;;-141.02;100.00;55844.97;5135471;27;20188;-76
2022/06/14 02:29:45;;;;;;;8.00;7.80;;;;;;;-141.02;100.00;55844.97;5136034;27;20192;-76
2022/06/14 02:32:17;;;;;;;8.20;8.00;;;;;;;-141.02;100.00;55844.97;5135374;27;20781;-78
2022/06/14 02:34:50;;;;;;;8.60;8.30;;;;;;;-141.02;100.00;55844.97;5135669;27;20661;-77
2022/06/14 02:37:22;;;;;;;8.90;8.60;;;;;;;-141.02;100.00;55844.97;5135586;27;20227;-76
2022/06/14 02:39:55;;;;;;;9.35;9.05;;;;;;;-141.02;100.00;55844.97;5135258;27;20229;-77
2022/06/14 02:42:30;;;;;;;9.30;9.00;;;;;;;-141.02;100.00;55844.97;5135169;27;20279;-76
2022/06/14 02:45:03;;;;;;;9.20;8.90;;;;;;;-141.02;100.00;55844.97;5135360;27;20315;-77
2022/06/14 02:47:35;;;;;;;9.50;9.20;;;;;;;-141.02;100.00;55844.97;5135099;27;20193;-76
2022/06/14 02:50:11;;;;;;;9.27;8.98;;;;;;;-141.02;100.00;55844.97;5134814;27;20577;-77
2022/06/14 02:52:43;;;;;;;9.15;8.85;;;;;;;-141.02;100.00;55844.97;5135274;27;20184;-77
2022/06/14 02:55:17;;;;;;;8.90;8.60;;;;;;;-141.02;100.00;55844.97;5135264;27;20201;-77
2022/06/14 02:57:48;;;;;;;9.20;8.90;;;;;;;-141.02;100.00;55844.97;5135144;27;20196;-76
2022/06/14 03:00:19;;;;;;;9.10;8.80;;;;;;;-141.02;100.00;55844.97;5134810;27;20655;-78
2022/06/14 03:02:52;;;;;;;8.45;8.25;;;;;;;-141.02;100.00;55844.97;5135046;27;20276;-76
2022/06/14 03:05:25;;;;;;;8.23;8.02;;;;;;;-141.02;100.00;55844.97;5135000;27;20212;-78
2022/06/14 03:08:00;;;;;;;7.95;7.75;;;;;;;-141.02;100.00;55844.97;5134589;27;20185;-76
2022/06/14 03:10:37;;;;;;;7.82;7.63;;;;;;;-141.02;100.00;55844.97;5134654;27;20672;-77
2022/06/14 03:13:12;;;;;;;7.63;7.43;;;;;;;-141.02;100.00;55844.97;5134551;27;20588;-76
2022/06/14 03:15:51;;;;;;;8.48;8.27;;;;;;;-141.02;100.00;55844.97;5134569;27;20704;-76
2022/06/14 03:18:29;;;;;;;8.30;8.10;;;;;;;-141.02;100.00;55844.97;5134473;27;20230;-77
2022/06/14 03:21:01;;;;;;;8.48;8.27;;;;;;;-141.02;100.00;55844.97;5134411;27;20220;-76
2022/06/14 03:23:40;;;;;;;9.30;9.00;;;;;;;-141.02;100.00;55844.97;5134675;27;20250;-76
2022/06/14 03:26:14;;;;;;;10.13;9.73;;;;;;;-141.02;100.00;55844.97;5134230;27;20212;-77
2022/06/14 03:28:47;;;;;;;10.50;10.20;;;;;;;-141.02;100.00;55844.97;5134270;27;20276;-76
2022/06/14 03:31:21;;;;;;;11.70;11.30;;;;;;;-141.02;100.00;55844.97;5134180;27;20678;-77
2022/06/14 03:33:50;;;;;;;10.40;10.10;;;;;;;-141.02;100.00;55844.97;5134530;27;20189;-76
2022/06/14 03:36:17;;;;;;;10.35;10.05;;;;;;;-141.02;100.00;55844.97;5134102;27;20312;-77
2022/06/14 03:38:50;;;;;;;10.57;10.27;;;;;;;-141.02;100.00;55844.97;5134607;27;20671;-77
2022/06/14 03:41:22;;;;;;;10.32;10.02;;;;;;;-141.02;100.00;55844.97;5134346;27;20615;-77
2022/06/14 03:43:51;;;;;;;10.65;10.35;;;;;;;-141.02;100.00;55844.97;5134359;27;20188;-78
2022/06/14 03:46:29;;;;;;;10.60;10.30;;;;;;;-141.02;100.00;55844.97;5134429;27;20227;-77
2022/06/14 03:49:02;;;;;;;11.07;10.68;;;;;;;-141.02;100.00;55844.97;5134255;27;20564;-76
2022/06/14 03:51:41;;;;;;;11.13;10.73;;;;;;;-141.02;100.00;55844.97;5133593;27;20648;-77
2022/06/14 03:54:23;;;;;;;10.93;10.52;;;;;;;-141.02;100.00;55844.97;5133807;27;20275;-77
2022/06/14 03:57:05;;;;;;;13.57;13.00;;;;;;;-141.02;100.00;55844.97;5134042;27;20621;-77
2022/06/14 03:59:49;;;;;;;16.20;15.30;;;;;;;-141.02;100.00;55844.97;5134003;27;20270;-77
2022/06/14 04:02:22;;;;;;;19.85;18.45;;;;;;;-141.02;100.00;55844.97;5133683;27;20279;-77
2022/06/14 04:04:56;;;;;;;21.65;20.05;;;;;;;-141.02;100.00;55844.97;5133510;27;20693;-77
2022/06/14 04:07:38;;;;;;;22.08;20.48;;;;;;;-141.02;100.00;55844.97;5133799;27;20183;-77
2022/06/14 04:10:14;;;;;;;19.35;18.05;;;;;;;-141.02;100.00;55844.97;5133808;27;20249;-76
2022/06/14 04:12:48;;;;;;;19.15;18.05;;;;;;;-141.02;100.00;55844.97;5134034;27;20223;-77
2022/06/14 04:15:32;;;;;;;18.52;17.45;;;;;;;-141.02;100.00;55844.97;5133772;27;20235;-77
2022/06/14 04:20:56;;;;;;;19.40;18.30;;;;;;;-141.02;100.00;55844.97;5133250;27;20200;-76
2022/06/14 04:23:36;;;;;;;19.90;18.70;;;;;;;-141.02;100.00;55844.97;5133841;27;20180;-77
2022/06/14 04:26:09;;;;;;;21.05;19.85;;;;;;;-141.02;100.00;55844.97;5133165;27;20208;-76
2022/06/14 04:28:45;;;;;;;21.98;20.67;;;;;;;-141.02;100.00;55844.97;5133488;27;20279;-78
2022/06/14 04:31:18;;;;;;;21.27;20.08;;;;;;;-141.02;100.00;55844.97;5133491;27;20192;-76
2022/06/14 04:33:50;;;;;;;20.92;19.73;;;;;;;-141.02;100.00;55844.97;5133242;27;20658;-76
2022/06/14 04:36:22;;;;;;;21.13;19.92;;;;;;;-141.02;100.00;55844.97;5133167;27;20188;-76
2022/06/14 04:38:58;;;;;;;21.10;19.90;;;;;;;-141.02;100.00;55844.97;5133168;27;20658;-76
2022/06/14 04:41:31;;;;;;;17.08;16.08;;;;;;;-141.02;100.00;55844.97;5133082;27;20237;-76
2022/06/14 04:44:07;;;;;;;18.13;17.23;;;;;;;-141.02;100.00;55844.97;5133086;27;20188;-77
2022/06/14 04:46:38;;;;;;;16.80;15.90;;;;;;;-141.02;100.00;55844.97;5132855;27;20223;-76
2022/06/14 04:49:12;;;;;;;18.40;17.55;;;;;;;-141.02;100.00;55844.97;5133631;27;20604;-76
2022/06/14 04:51:47;;;;;;;15.13;14.32;;;;;;;-141.02;100.00;55844.97;5133063;27;20307;-76
2022/06/14 04:54:19;;;;;;;16.88;16.17;;;;;;;-141.02;100.00;55844.97;5132957;27;20642;-76
2022/06/14 04:56:52;;;;;;;18.20;17.40;;;;;;;-141.02;100.00;55844.97;5132925;27;20245;-77
2022/06/14 04:59:28;;;;;;;19.58;18.58;;;;;;;-141.02;100.00;55844.97;5132976;27;20280;-77
2022/06/14 05:02:00;;;;;;;19.65;18.65;;;;;;;-141.02;100.00;55844.97;5132834;27;20650;-76
2022/06/14 05:04:32;;;;;;;18.83;17.92;;;;;;;-141.02;100.00;55844.97;5132789;27;20267;-76
2022/06/14 05:07:05;;;;;;;19.38;18.48;;;;;;;-141.02;100.00;55844.97;5133453;27;20189;-76
2022/06/14 05:09:37;;;;;;;19.25;18.30;;;;;;;-141.02;100.00;55844.97;5133076;27;20697;-76
2022/06/14 05:12:16;;;;;;;17.55;16.75;;;;;;;-141.02;100.00;55844.97;5132752;27;20276;-76
2022/06/14 05:14:54;;;;;;;18.80;17.90;;;;;;;-141.02;100.00;55844.97;5133870;27;20223;-76
2022/06/14 05:17:26;;;;;;;22.25;21.15;;;;;;;-141.02;100.00;55844.97;5133040;27;20280;-76
2022/06/14 05:19:59;;;;;;;16.90;16.10;;;;;;;-141.02;100.00;55844.97;5133048;27;20181;-77
2022/06/14 05:22:31;;;;;;;18.70;17.80;;;;;;;-141.02;100.00;55844.97;5133012;27;20220;-76
2022/06/14 05:25:00;;;;;;;17.77;16.98;;;;;;;-141.02;100.00;55844.97;5136649;27;20204;-76
2022/06/14 05:27:41;;;;;;;17.83;17.02;;;;;;;-141.02;100.00;55844.97;5136606;27;20651;-76
2022/06/14 05:30:24;;;;;;;18.40;17.50;;;;;;;-141.02;100.00;55844.97;5136940;27;20184;-76
2022/06/14 05:33:03;;;;;;;17.80;17.00;;;;;;;-141.02;100.00;55844.97;5136924;27;20184;-76
2022/06/14 05:35:36;;;;;;;18.40;17.50;;;;;;;-141.02;100.00;55844.97;5136783;27;20188;-76
2022/06/14 05:38:14;;;;;;;18.50;17.60;;;;;;;-141.02;100.00;55844.97;5137352;27;20196;-76
2022/06/14 05:40:46;;;;;;;19.20;18.30;;;;;;;-141.02;100.00;55844.97;5136737;27;20192;-76
2022/06/14 05:43:17;;;;;;;18.42;17.50;;;;;;;-141.02;100.00;55844.97;5136679;27;20557;-76
2022/06/14 05:45:52;;;;;;;18.77;17.77;;;;;;;-141.02;100.00;55844.97;5136774;27;20241;-77
2022/06/14 05:48:26;;;;;;;19.70;18.70;;;;;;;-141.02;100.00;55844.97;5136576;27;20266;-76
2022/06/14 05:50:57;;;;;;;19.42;18.42;;;;;;;-141.02;100.00;55844.97;5136209;27;20228;-76
2022/06/14 05:53:29;;;;;;;20.75;19.63;;;;;;;-141.02;100.00;55844.97;5136181;27;20641;-76
2022/06/14 05:56:02;;;;;;;21.83;20.63;;;;;;;-141.02;100.00;55844.97;5136686;27;20212;-75
2022/06/14 05:58:36;;;;;;;20.20;19.10;;;;;;;-141.02;100.00;55844.97;5136108;27;20185;-75
2022/06/14 06:01:10;;;;;;;20.10;19.00;;;;;;;-141.02;100.00;55844.97;5136011;27;20191;-75
2022/06/14 06:03:45;;;;;;;19.45;18.45;;;;;;;-141.02;100.00;55844.97;5135938;27;20223;-76
2022/06/14 06:06:16;;;;;;;19.00;18.00;;;;;;;-141.02;100.00;55844.97;5136204;27;20216;-77
2022/06/14 06:08:47;;;;;;;18.98;17.98;;;;;;;-141.02;100.00;55844.97;5136165;27;20216;-76
2022/06/14 06:11:19;;;;;;;18.15;17.25;;;;;;;-141.02;100.00;55844.97;5135794;27;20650;-77
2022/06/14 06:13:51;;;;;;;18.38;17.48;;;;;;;-141.02;100.00;55844.97;5135829;27;20189;-76
2022/06/14 06:16:24;;;;;;;19.85;18.85;;;;;;;-141.02;100.00;55844.97;5136080;27;20335;-75
2022/06/14 06:18:57;;;;;;;18.50;17.60;;;;;;;-141.02;100.00;55844.97;5135991;27;20196;-76
2022/06/14 06:21:34;;;;;;;19.00;18.00;;;;;;;-141.02;100.00;55844.97;5136220;27;20185;-75
2022/06/14 06:24:08;;;;;;;18.73;17.83;;;;;;;-141.02;100.00;55844.97;5135865;27;20189;-74
2022/06/14 06:26:37;;;;;;;18.55;17.60;;;;;;;-141.02;100.00;55844.97;5135689;27;20681;-74
2022/06/14 06:29:12;;;;;;;19.23;18.23;;;;;;;-141.02;100.00;55844.97;5135692;27;20249;-76
2022/06/14 06:31:43;;;;;;;18.65;17.75;;;;;;;-141.02;100.00;55844.97;5135780;27;20184;-76
2022/06/14 06:34:14;;;;;;;18.58;17.67;;;;;;;-141.02;100.00;55844.97;5135283;27;20322;-76
2022/06/14 06:36:53;;;;;;;18.65;17.75;;;;;;;-141.02;100.00;55844.97;5135665;27;20288;-76
2022/06/14 06:39:37;;;;;;;19.70;18.70;;;;;;;-141.02;100.00;55844.97;5135569;27;20191;-75
2022/06/14 06:42:11;;;;;;;20.77;19.67;;;;;;;-141.02;100.00;55844.97;5135232;27;20639;-76
2022/06/14 06:44:47;;;;;;;20.63;19.50;;;;;;;-141.02;100.00;55844.97;5135507;27;20242;-76
2022/06/14 06:47:22;;;;;;;20.52;19.42;;;;;;;-141.02;100.00;55844.97;5135070;27;20733;-76
2022/06/14 06:50:00;;;;;;;20.70;19.60;;;;;;;-141.02;100.00;55844.97;5135212;27;20271;-75
2022/06/14 06:52:46;;;;;;;19.88;18.77;;;;;;;-141.02;100.00;55844.97;5135338;27;20188;-75
2022/06/14 06:55:19;;;;;;;20.50;19.40;;;;;;;-141.02;100.00;55844.97;5134982;27;20190;-75
2022/06/14 06:57:49;;;;;;;20.42;19.33;;;;;;;-141.02;100.00;55844.97;5135142;27;20188;-77
2022/06/14 07:00:19;;;;;;;20.20;19.10;;;;;;;-141.02;100.00;55844.97;5134914;27;20684;-75
2022/06/14 07:02:52;;;;;;;20.08;18.98;;;;;;;-141.02;100.00;55844.97;5134744;27;20316;-76
2022/06/14 07:05:20;;;;;;;20.50;19.40;;;;;;;-141.02;100.00;55844.97;5135034;27;20276;-76
2022/06/14 07:07:54;;;;;;;19.65;18.65;;;;;;;-141.02;100.00;55844.97;5134969;27;20218;-76
2022/06/14 07:10:28;;;;;;;20.15;19.08;;;;;;;-141.02;100.00;55844.97;5134757;27;20236;-79
2022/06/14 07:13:00;;;;;;;20.50;19.40;;;;;;;-141.02;100.00;55844.97;5134598;27;20702;-77
2022/06/14 07:15:35;;;;;;;20.63;19.52;;;;;;;-141.02;100.00;55844.97;5134578;27;20189;-76
2022/06/14 07:18:12;;;;;;;21.48;20.27;;;;;;;-141.02;100.00;55844.97;5135387;27;20257;-77
2022/06/14 07:20:48;;;;;;;21.60;20.35;;;;;;;-141.02;100.00;55844.97;5134807;27;20204;-79
2022/06/14 07:23:23;;;;;;;22.25;20.95;;;;;;;-141.02;100.00;55844.97;5134713;27;20192;-77
2022/06/14 07:26:02;;;;;;;21.80;20.58;;;;;;;-141.02;100.00;55844.97;5134516;27;20294;-76
2022/06/14 07:28:36;;;;;;;21.80;20.50;;;;;;;-141.02;100.00;55844.97;5134665;27;20184;-77
2022/06/14 07:31:07;;;;;;;21.85;20.55;;;;;;;-141.02;100.00;55844.97;5134577;27;20191;-77
2022/06/14 07:33:37;;;;;;;21.77;20.55;;;;;;;-141.02;100.00;55844.97;5134552;27;20245;-77
2022/06/14 07:36:14;;;;;;;21.92;20.63;;;;;;;-141.02;100.00;55844.97;5134530;27;20189;-79
2022/06/14 07:38:49;;;;;;;21.50;20.30;;;;;;;-141.02;100.00;55844.97;5134461;27;20188;-76
2022/06/14 07:41:31;;;;;;;22.38;21.08;;;;;;;-141.02;100.00;55844.97;5134422;27;20237;-78
2022/06/14 07:44:07;;;;;;;22.45;21.15;;;;;;;-141.02;100.00;55844.97;5134446;27;20570;-81
2022/06/14 07:46:41;;;;;;;22.45;21.17;;;;;;;-141.02;100.00;55844.97;5133473;27;20212;-76
2022/06/14 07:49:17;;;;;;;22.60;21.30;;;;;;;-141.02;100.00;55844.97;5133904;27;20180;-77
2022/06/14 07:51:49;;;;;;;21.88;20.67;;;;;;;-141.02;100.00;55844.97;5133967;27;20223;-77
2022/06/14 07:54:22;;;;;;;21.88;20.67;;;;;;;-141.02;100.00;55844.97;5134060;27;20658;-76
2022/06/14 07:56:55;;;;;;;21.92;20.73;;;;;;;-141.02;100.00;55844.97;5133742;27;20195;-78
2022/06/14 07:59:26;;;;;;;22.23;20.92;;;;;;;-141.02;100.00;55844.97;5134032;27;20275;-76
2022/06/14 08:01:59;;;;;;;22.27;21.08;;;;;;;-141.02;100.00;55844.97;5133655;27;20189;-78
2022/06/14 08:04:35;;;;;;;22.25;21.00;;;;;;;-141.02;100.00;55844.97;5133688;27;20227;-78
2022/06/14 08:07:04;;;;;;;22.80;21.50;;;;;;;-141.02;100.00;55844.97;5133461;27;20318;-79
2022/06/14 08:09:38;;;;;;;23.33;21.95;;;;;;;-141.02;100.00;55844.97;5133911;27;20196;-79
2022/06/14 08:12:11;;;;;;;22.67;21.38;;;;;;;-141.02;100.00;55844.97;5133875;27;20191;-77
2022/06/14 08:14:45;;;;;;;22.63;21.33;;;;;;;-141.02;100.00;55844.97;5133629;27;20220;-78
2022/06/14 08:17:18;;;;;;;22.85;21.55;;;;;;;-141.02;100.00;55844.97;5133854;27;20206;-78
2022/06/14 08:19:52;;;;;;;22.90;21.60;;;;;;;-141.02;100.00;55844.97;5133888;27;20189;-78
2022/06/14 08:22:25;;;;;;;23.40;22.00;;;;;;;-141.02;100.00;55844.97;5133762;27;20636;-77
2022/06/14 08:25:01;;;;;;;22.33;21.02;;;;;;;-141.02;100.00;55844.97;5133691;27;20193;-77
2022/06/14 08:27:33;;;;;;;23.02;21.63;;;;;;;-141.02;100.00;55844.97;5133461;27;20303;-76
2022/06/14 08:30:06;;;;;;;22.48;21.17;;;;;;;-141.02;100.00;55844.97;5133843;27;20196;-78
2022/06/14 08:32:38;;;;;;;22.80;21.42;;;;;;;-141.02;100.00;55844.97;5133572;27;20196;-79
2022/06/14 08:35:15;;;;;;;22.20;20.90;;;;;;;-141.02;100.00;55844.97;5133406;27;20721;-78
2022/06/14 08:37:48;;;;;;;21.63;20.33;;;;;;;-141.02;100.00;55844.97;5133192;27;20231;-78
2022/06/14 08:40:37;;;;;;;21.42;20.13;;;;;;;-141.02;100.00;55844.97;5133484;27;20193;-78
2022/06/14 08:43:09;;;;;;;21.60;20.30;;;;;;;-141.02;100.00;55844.97;5133236;27;20188;-77
2022/06/14 08:45:40;;;;;;;20.90;19.70;;;;;;;-141.02;100.00;55844.97;5133315;27;20188;-78
2022/06/14 08:48:18;;;;;;;22.15;20.85;;;;;;;-141.02;100.00;55844.97;5133394;27;20287;-76
2022/06/14 08:51:13;;;;;;;22.13;20.83;;;;;;;-141.02;100.00;55844.97;5133039;27;20238;-76
2022/06/14 08:54:18;;;;;;;23.00;21.60;;;;;;;-141.02;100.00;55844.97;5133091;27;20638;-81
2022/06/14 08:57:14;;;;;;;24.50;23.00;;;;;;;-141.02;100.00;55844.97;5134706;27;20252;-83
2022/06/14 09:00:04;;;;;;;23.33;22.02;;;;;;;-141.02;100.00;55844.97;5128692;27;20284;-76
2022/06/14 09:03:18;;;;;;;22.92;21.63;;;;;;;-141.02;100.00;55844.97;5137304;27;20692;-79
2022/06/14 09:05:59;;;;;;;22.80;21.50;;;;;;;-141.02;100.00;55844.97;5137066;27;20249;-78
2022/06/14 09:09:09;;;;;;;23.27;21.98;;;;;;;-141.02;100.00;55844.97;5137456;27;20188;-77
2022/06/14 09:12:12;;;;;;;22.55;21.25;;;;;;;-141.02;100.00;55844.97;5136948;27;20684;-79
2022/06/14 09:15:16;;;;;;;23.25;21.85;;;;;;;-141.02;100.00;55844.97;5137245;27;20200;-79
2022/06/14 09:18:08;;;;;;;22.75;21.45;;;;;;;-141.02;100.00;55844.97;5136772;27;20688;-75
2022/06/14 09:20:42;;;;;;;23.17;21.88;;;;;;;-141.02;100.00;55844.97;5137223;27;20193;-81
2022/06/14 09:23:29;;;;;;;22.55;21.25;;;;;;;-141.02;100.00;55844.97;5136790;27;20646;-76
2022/06/14 09:26:31;;;;;;;22.95;21.55;;;;;;;-141.02;100.00;55844.97;5136656;27;20611;-79
2022/06/14 09:29:27;;;;;;;22.95;21.55;;;;;;;-141.02;100.00;55844.97;5132879;27;20225;-83
2022/06/14 09:32:21;;;;;;;22.00;20.70;;;;;;;-141.02;100.00;55844.97;5136890;27;20268;-76
2022/06/14 09:35:02;;;;;;;21.50;20.30;;;;;;;-141.02;100.00;55844.97;5132194;27;20196;-82
2022/06/14 09:37:56;;;;;;;21.92;20.63;;;;;;;-141.02;100.00;55844.97;5136913;27;20184;-84
2022/06/14 09:40:44;;;;;;;23.10;21.80;;;;;;;-141.02;100.00;55844.97;5135157;27;20196;-78
2022/06/14 09:43:32;;;;;;;22.70;21.40;;;;;;;-141.02;100.00;55844.97;5136782;27;20192;-79
2022/06/14 09:46:16;;;;;;;23.13;21.83;;;;;;;-141.02;100.00;55844.97;5136257;27;20237;-76
2022/06/14 09:49:06;;;;;;;23.38;22.05;;;;;;;-141.02;100.00;55844.97;5136289;27;20199;-80
2022/06/14 09:52:02;;;;;;;23.70;22.30;;;;;;;-141.02;100.00;55844.97;5131258;27;20260;-79
2022/06/14 09:55:02;;;;;;;22.55;21.25;;;;;;;-141.02;100.00;55844.97;5136629;27;20184;-85
2022/06/14 09:57:57;;;;;;;23.02;21.63;;;;;;;-141.02;100.00;55844.97;5134346;27;20246;-79
2022/06/14 10:00:36;;;;;;;22.83;21.45;;;;;;;-141.02;100.00;55844.97;5136070;27;20658;-80
2022/06/14 10:03:30;;;;;;;22.00;20.70;;;;;;;-141.02;100.00;55844.97;5136411;27;20624;-79
2022/06/14 10:06:12;;;;;;;21.98;20.63;;;;;;;-141.02;100.00;55844.97;5136054;27;20193;-74
2022/06/14 10:08:54;;;;;;;23.13;21.73;;;;;;;-141.02;100.00;55844.97;5135683;27;20219;-79
2022/06/14 10:11:37;;;;;;;23.00;21.60;;;;;;;-141.02;100.00;55844.97;5136008;27;20280;-79
2022/06/14 10:14:20;;;;;;;23.70;22.20;;;;;;;-141.02;100.00;55844.97;5136260;27;20184;-79
2022/06/14 10:17:13;;;;;;;23.00;21.60;;;;;;;-141.02;100.00;55844.97;5136096;27;20225;-79
2022/06/14 10:20:10;;;;;;;24.70;23.10;;;;;;;-141.02;100.00;55844.97;5130988;27;20193;-78
2022/06/14 10:22:52;;;;;;;23.40;22.00;;;;;;;-141.02;100.00;55844.97;5136147;27;20207;-80
2022/06/14 10:25:29;;;;;;;23.40;22.00;;;;;;;-141.02;100.00;55844.97;5136057;27;20658;-83
2022/06/14 10:28:13;;;;;;;23.40;22.00;;;;;;;-141.02;100.00;55844.97;5136308;27;20218;-79
2022/06/14 10:30:58;;;;;;;23.38;21.98;;;;;;;-141.02;100.00;55844.97;5135725;27;20184;-82
2022/06/14 10:33:54;;;;;;;23.30;21.90;;;;;;;-141.02;100.00;55844.97;5135550;27;20558;-79
2022/06/14 10:36:38;;;;;;;22.95;21.55;;;;;;;-141.02;100.00;55844.97;5126412;27;20226;-82
2022/06/14 10:39:47;;;;;;;22.35;20.95;;;;;;;-141.02;100.00;55844.97;5135949;27;20264;-81
2022/06/14 10:42:22;;;;;;;22.85;21.45;;;;;;;-141.02;100.00;55844.97;5135353;27;20241;-79
2022/06/14 10:44:57;;;;;;;23.45;22.05;;;;;;;-141.02;100.00;55844.97;5135683;27;20636;-81
2022/06/14 10:47:39;;;;;;;23.65;22.15;;;;;;;-141.02;100.00;55844.97;5135146;27;20792;-82
2022/06/14 10:50:25;;;;;;;23.33;21.83;;;;;;;-141.02;100.00;55844.97;5135701;27;20245;-81
2022/06/14 10:53:15;;;;;;;23.98;22.48;;;;;;;-141.02;100.00;55844.97;5135469;27;20677;-82
2022/06/14 10:56:16;;;;;;;23.65;22.15;;;;;;;-141.02;100.00;55844.97;5135245;27;20188;-74
2022/06/14 10:59:25;;;;;;;23.45;21.95;;;;;;;-141.02;100.00;55844.97;5132886;27;20215;-81
2022/06/14 11:01:59;;;;;;;23.15;21.67;;;;;;;-141.02;100.00;55844.97;5135339;27;20195;-78
2022/06/14 11:04:34;;;;;;;23.80;22.30;;;;;;;-141.02;100.00;55844.97;5135081;27;20271;-77
2022/06/14 11:07:30;;;;;;;24.05;22.55;;;;;;;-141.02;100.00;55844.97;5135286;27;20298;-78
2022/06/14 11:10:21;;;;;;;24.10;22.50;;;;;;;-141.02;100.00;55844.97;5134907;27;20189;-82
2022/06/14 11:12:56;;;;;;;23.63;22.13;;;;;;;-141.02;100.00;55844.97;5129883;27;20719;-80
2022/06/14 11:15:33;;;;;;;22.75;21.35;;;;;;;-141.02;100.00;55844.97;5134852;27;20227;-80
2022/06/14 11:18:29;;;;;;;23.58;22.10;;;;;;;-141.02;100.00;55844.97;5135309;27;20185;-82
2022/06/14 11:21:05;;;;;;;23.92;22.42;;;;;;;-141.02;100.00;55844.97;5133811;27;20606;-80
2022/06/14 11:23:40;;;;;;;23.85;22.35;;;;;;;-141.02;100.00;55844.97;5134986;27;20597;-79
2022/06/14 11:26:12;;;;;;;23.67;22.17;;;;;;;-141.02;100.00;55844.97;5134396;27;20227;-77
2022/06/14 11:28:49;;;;;;;23.90;22.40;;;;;;;-141.02;100.00;55844.97;5134429;27;20682;-82
2022/06/14 11:31:25;;;;;;;23.38;21.98;;;;;;;-141.02;100.00;55844.97;5134942;27;20270;-81
2022/06/14 11:34:18;;;;;;;22.88;21.48;;;;;;;-141.02;100.00;55844.97;5133381;27;20196;-82
2022/06/14 11:36:59;;;;;;;22.98;21.50;;;;;;;-141.02;100.00;55844.97;5134553;27;20292;-80
2022/06/14 11:39:37;;;;;;;22.60;21.20;;;;;;;-141.02;100.00;55844.97;5134545;27;20217;-84
2022/06/14 11:42:11;;;;;;;23.20;21.42;;;;;;;-141.02;100.00;55844.97;5134482;27;20184;-81
2022/06/14 11:44:52;;;;;;;23.15;21.65;;;;;;;-141.02;100.00;55844.97;5134081;27;20271;-82
2022/06/14 11:47:29;;;;;;;23.48;21.98;;;;;;;-141.02;100.00;55844.97;5134280;27;20217;-81